Flinterbrise — PHCA — position and weather

sailwx.info

Track history (hours):
 
Tides and Currents Weather Stations Pressure Air Temp Water Temp Dewpoint Dewpoint Depression Visibility Wind Speed Wind Dir Waves Ship Positions

Flinterbrise

Last reported at 2015-Mar-28 05:33 UTC. Time now 2015-Mar-29 04:21 UTC.
Position N 55°04' E 019°03'.

Length 82 m; draft 5.6 m.

Type: Ship. MMSI: 246044000.

Date/timePositionNaut miles runAvg speedWind from/ knotsBaromVisibWave heightAir tempDewpointWater temp
2015-Mar-28 05:33N 55°04' E 019°03'1111.1
2015-Mar-28 04:33N 54°53' E 019°01'1111.1
2015-Mar-28 03:33N 54°42' E 018°59'1110.8
2015-Mar-28 02:34N 54°33' E 018°50'10 9.9
2015-Mar-28 01:34N 54°25' E 018°39'2 2.0
2015-Mar-28 00:33N 54°24' E 018°40'0 0.0
2015-Mar-27 23:34N 54°24' E 018°40'0 0.0
2015-Mar-27 22:33N 54°24' E 018°40'0 0.0
2015-Mar-27 21:33N 54°24' E 018°40'0 0.0
2015-Mar-27 20:33N 54°24' E 018°40'0 0.0
2015-Mar-27 19:33N 54°24' E 018°40'0 0.0
2015-Mar-27 18:33N 54°24' E 018°40'0 0.0
2015-Mar-27 17:33N 54°24' E 018°40'0 0.0
2015-Mar-27 16:33N 54°24' E 018°40'0 0.0
2015-Mar-27 15:34N 54°24' E 018°40'0 0.0
2015-Mar-27 14:34N 54°24' E 018°40'0 0.0
2015-Mar-27 13:34N 54°24' E 018°40'0 0.0
2015-Mar-27 12:34N 54°24' E 018°40'0 0.0
2015-Mar-27 11:34N 54°24' E 018°40'0 0.0
2015-Mar-27 10:34N 54°24' E 018°40'0 0.0
2015-Mar-27 09:33N 54°24' E 018°40'0 0.0
2015-Mar-27 08:33N 54°24' E 018°40'0 0.0
2015-Mar-27 07:33N 54°24' E 018°40'0 0.0
2015-Mar-27 06:33N 54°24' E 018°40'0 0.0
2015-Mar-27 05:32N 54°24' E 018°40'0 0.0
2015-Mar-27 04:33N 54°24' E 018°40'0 0.0
2015-Mar-27 03:33N 54°24' E 018°40'0 0.0
2015-Mar-27 02:32N 54°24' E 018°40'0 0.0
2015-Mar-27 01:33N 54°24' E 018°40'0 0.0
2015-Mar-27 00:33N 54°24' E 018°40'0 0.0
2015-Mar-26 23:33N 54°24' E 018°40'0 0.0
2015-Mar-26 22:33N 54°24' E 018°40'0 0.0
2015-Mar-26 21:33N 54°24' E 018°40'0 0.0
2015-Mar-26 20:33N 54°24' E 018°40'0 0.0
2015-Mar-26 19:33N 54°24' E 018°40'0 0.0
2015-Mar-26 18:33N 54°24' E 018°40'0 0.0
2015-Mar-26 17:32N 54°24' E 018°40'0 0.0
2015-Mar-26 16:32N 54°24' E 018°40'0 0.0
2015-Mar-26 15:34N 54°24' E 018°40'0 0.0
2015-Mar-26 14:34N 54°24' E 018°40'0 0.0
2015-Mar-26 13:33N 54°24' E 018°40'0 0.0
2015-Mar-26 12:33N 54°24' E 018°40'0 0.0
2015-Mar-26 11:33N 54°24' E 018°40'6 5.5
2015-Mar-26 10:32N 54°29' E 018°43'1010.3
2015-Mar-26 09:33N 54°37' E 018°54'10 9.9
2015-Mar-26 08:32N 54°47' E 018°58'1010.0
2015-Mar-26 07:33N 54°53' E 018°44'9 9.2
2015-Mar-26 06:34N 54°54' E 018°28'10 9.5
2015-Mar-26 05:33N 54°54' E 018°11'10 9.4
2015-Mar-26 04:32N 54°54' E 017°55'10 9.5
2015-Mar-26 03:32N 54°53' E 017°38'9 9.6
2015-Mar-26 02:33N 54°53' E 017°22'54 9.1
2015-Mar-25 20:33N 54°43' E 015°49'28 6.8
2015-Mar-25 16:28N 54°39' E 015°02'36 8.8
2015-Mar-25 12:26N 54°40' E 014°00'9 9.9
2015-Mar-25 11:29N 54°43' E 013°45'9 9.9
2015-Mar-25 10:33N 54°45' E 013°29'11 9.9
2015-Mar-25 09:29N 54°45' E 013°11'910.0
2015-Mar-25 08:33N 54°45' E 012°55'1110.0
2015-Mar-25 07:27N 54°42' E 012°37'1011.6
2015-Mar-25 06:33N 54°36' E 012°22'1010.4
2015-Mar-25 05:33N 54°27' E 012°14'10 9.8
2015-Mar-25 04:33N 54°25' E 011°57'1010.1
2015-Mar-25 03:33N 54°27' E 011°41'1010.0
2015-Mar-25 02:34N 54°31' E 011°25'1010.4
2015-Mar-25 01:34N 54°36' E 011°09'2110.3
2015-Mar-24 23:33N 54°33' E 010°34'1010.2
2015-Mar-24 22:33N 54°29' E 010°18'9 8.7
2015-Mar-24 21:33N 54°22' E 010°09'4 4.4
2015-Mar-24 20:34N 54°22' E 010°01'4 3.9
2015-Mar-24 19:32N 54°21' E 009°54'5 5.3
2015-Mar-24 18:33N 54°21' E 009°45'8 7.4
2015-Mar-24 17:27N 54°14' E 009°37'15 7.9
2015-Mar-24 15:34N 54°04' E 009°19'8 8.5
2015-Mar-24 14:34N 53°56' E 009°13'3 3.4
2015-Mar-24 13:33N 53°54' E 009°09'1 1.5
2015-Mar-24 12:33N 53°53' E 009°06'1110.6
2015-Mar-24 11:33N 53°50' E 008°49'1110.7
2015-Mar-24 10:31N 53°58' E 008°35'10 9.8
2015-Mar-24 09:33N 53°59' E 008°19'1210.8
2015-Mar-24 08:24N 53°58' E 007°58'8 9.8
2015-Mar-24 07:34N 53°56' E 007°44'9 9.2
2015-Mar-24 06:33N 53°54' E 007°29'9 8.9
2015-Mar-24 05:33N 53°52' E 007°14'27 5.4
2015-Mar-24 00:32N 53°32' E 006°44'9 9.1
2015-Mar-23 23:33N 53°26' E 006°55'7 7.2
2015-Mar-23 22:33N 53°19' E 006°59'3 2.6
2015-Mar-23 21:33N 53°19' E 006°55'0 0.1
2015-Mar-23 20:32N 53°19' E 006°55'0 0.0
2015-Mar-23 19:32N 53°19' E 006°55'0 0.0
2015-Mar-23 18:32N 53°19' E 006°55'0 0.0
2015-Mar-23 17:32N 53°19' E 006°55'0 0.0
2015-Mar-23 16:32N 53°19' E 006°55'0 0.0
2015-Mar-23 15:32N 53°19' E 006°55'0 0.0
2015-Mar-23 14:32N 53°19' E 006°55'0 0.0
2015-Mar-23 13:29N 53°19' E 006°55'0 0.0
2015-Mar-23 12:32N 53°19' E 006°55'0 0.0
2015-Mar-23 11:29N 53°19' E 006°55'0 0.0
2015-Mar-23 10:32N 53°19' E 006°55'0 0.0
2015-Mar-23 09:32N 53°19' E 006°55'0 0.0
2015-Mar-23 08:32N 53°19' E 006°55'0 0.0
2015-Mar-23 07:32N 53°19' E 006°55'0 0.0
2015-Mar-23 06:32N 53°19' E 006°55'0 0.0
2015-Mar-23 05:32N 53°19' E 006°55'0 0.0
2015-Mar-23 04:26N 53°19' E 006°55'0 0.0
2015-Mar-23 03:32N 53°19' E 006°55'0 0.0
2015-Mar-23 02:32N 53°19' E 006°55'0 0.0
2015-Mar-23 01:33N 53°19' E 006°55'0 0.0
2015-Mar-23 00:32N 53°19' E 006°55'0 0.0
2015-Mar-22 23:32N 53°19' E 006°55'0 0.0
2015-Mar-22 22:33N 53°19' E 006°55'0 0.0
2015-Mar-22 21:32N 53°19' E 006°55'0 0.0
2015-Mar-22 20:32N 53°19' E 006°55'0 0.0
2015-Mar-22 19:29N 53°19' E 006°55'0 0.0
2015-Mar-22 18:32N 53°19' E 006°55'0 0.0
2015-Mar-22 17:32N 53°19' E 006°55'0 0.0
2015-Mar-22 16:32N 53°19' E 006°55'0 0.0
2015-Mar-22 15:32N 53°19' E 006°55'0 0.0
2015-Mar-22 14:32N 53°19' E 006°55'0 0.0
2015-Mar-22 13:32N 53°19' E 006°55'0 0.0
2015-Mar-22 12:29N 53°19' E 006°55'0 0.0
2015-Mar-22 11:32N 53°19' E 006°55'0 0.0
2015-Mar-22 10:32N 53°19' E 006°55'0 0.0
2015-Mar-22 09:32N 53°19' E 006°55'0 0.0
2015-Mar-22 08:32N 53°19' E 006°55'0 0.0
2015-Mar-22 07:32N 53°19' E 006°55'0 0.0
2015-Mar-22 06:32N 53°19' E 006°55'0 0.0
2015-Mar-22 05:32N 53°19' E 006°55'0 0.0
2015-Mar-22 04:33N 53°19' E 006°55'0 0.0
2015-Mar-22 03:32N 53°19' E 006°55'0 0.0
2015-Mar-22 02:29N 53°19' E 006°55'0 0.0
2015-Mar-22 01:32N 53°19' E 006°55'0 0.0
2015-Mar-22 00:32N 53°19' E 006°55'0 0.0
2015-Mar-21 23:32N 53°19' E 006°55'0 0.0
2015-Mar-21 22:32N 53°19' E 006°55'0 0.0
2015-Mar-21 21:32N 53°19' E 006°55'0 0.0
2015-Mar-21 20:29N 53°19' E 006°55'0 0.0
2015-Mar-21 19:32N 53°19' E 006°55'0 0.0
2015-Mar-21 18:32N 53°19' E 006°55'0 0.0
2015-Mar-21 17:32N 53°19' E 006°55'0 0.0
2015-Mar-21 16:32N 53°19' E 006°55'0 0.0
2015-Mar-21 15:32N 53°19' E 006°55'0 0.0
2015-Mar-21 14:32N 53°19' E 006°55'0 0.0
2015-Mar-21 13:32N 53°19' E 006°55'0 0.0
2015-Mar-21 12:32N 53°19' E 006°55'0 0.0
2015-Mar-21 11:26N 53°19' E 006°55'0 0.0
2015-Mar-21 10:32N 53°19' E 006°55'0 0.0
2015-Mar-21 09:32N 53°19' E 006°55'0 0.0
2015-Mar-21 08:32N 53°19' E 006°55'0 0.0
2015-Mar-21 07:32N 53°19' E 006°55'0 0.0
2015-Mar-21 06:32N 53°19' E 006°55'0 0.0
2015-Mar-21 05:32N 53°19' E 006°55'0 0.0
2015-Mar-21 04:33N 53°19' E 006°55'0 0.0
2015-Mar-21 03:29N 53°19' E 006°55'0 0.0
2015-Mar-21 02:29N 53°19' E 006°55'0 0.0
2015-Mar-21 01:29N 53°19' E 006°55'0 0.0
2015-Mar-21 00:20N 53°19' E 006°55'0 0.0
2015-Mar-20 23:29N 53°19' E 006°55'0 0.0
2015-Mar-20 22:29N 53°19' E 006°55'0 0.0
2015-Mar-20 21:32N 53°19' E 006°55'0 0.0
2015-Mar-20 20:32N 53°19' E 006°55'0 0.5
2015-Mar-20 19:33N 53°19' E 006°55'1 1.1
2015-Mar-20 18:33N 53°20' E 006°56'0 0.3
2015-Mar-20 17:33N 53°20' E 006°56'0 0.0
2015-Mar-20 16:33N 53°20' E 006°56'0 0.0
2015-Mar-20 15:33N 53°20' E 006°56'0 0.0
2015-Mar-20 14:33N 53°20' E 006°56'0 0.0
2015-Mar-20 13:33N 53°20' E 006°56'0 0.0
2015-Mar-20 12:33N 53°20' E 006°56'0 0.0
2015-Mar-20 11:33N 53°20' E 006°56'0 0.0
2015-Mar-20 10:33N 53°20' E 006°56'1 1.2
2015-Mar-20 09:33N 53°19' E 006°58'9 8.9
2015-Mar-20 08:33N 53°28' E 006°52'3712.5
2015-Mar-20 05:33N 53°36' E 005°51'1211.6
2015-Mar-20 04:33N 53°34' E 005°32'1111.4
2015-Mar-20 03:33N 53°31' E 005°13'1110.7
2015-Mar-20 02:33N 53°27' E 004°57'10 9.7
2015-Mar-20 01:33N 53°23' E 004°42'37 9.2
2015-Mar-19 21:29N 52°50' E 004°12'20 8.9
2015-Mar-19 19:11N 52°34' E 003°51'8310.8
2015-Mar-19 11:28N 51°34' E 002°18'1411.4
2015-Mar-19 10:16N 51°23' E 002°03'810.9
2015-Mar-19 09:33N 51°17' E 001°56'10 9.9
2015-Mar-19 08:33N 51°10' E 001°45'8 8.2
2015-Mar-19 07:33N 51°03' E 001°37'10 8.2
2015-Mar-19 06:19N 50°54' E 001°30'  
Track history (hours):
 
Tides and Currents Weather Stations Pressure Air Temp Water Temp Dewpoint Dewpoint Depression Visibility Wind Speed Wind Dir Waves Ship Positions

Flinterbrise

Last reported at 2015-Mar-28 05:33 UTC. Time now 2015-Mar-29 04:21 UTC.
Position N 55°04' E 019°03'.

Length 82 m; draft 5.6 m.

Type: Ship. MMSI: 246044000.

Date/timePositionNaut miles runAvg speedWind from/ knotsBaromVisibWave heightAir tempDewpointWater temp
2015-Mar-28 05:33N 55°04' E 019°03'1111.1
2015-Mar-28 04:33N 54°53' E 019°01'1111.1
2015-Mar-28 03:33N 54°42' E 018°59'1110.8
2015-Mar-28 02:34N 54°33' E 018°50'10 9.9
2015-Mar-28 01:34N 54°25' E 018°39'2 2.0
2015-Mar-28 00:33N 54°24' E 018°40'0 0.0
2015-Mar-27 23:34N 54°24' E 018°40'0 0.0
2015-Mar-27 22:33N 54°24' E 018°40'0 0.0
2015-Mar-27 21:33N 54°24' E 018°40'0 0.0
2015-Mar-27 20:33N 54°24' E 018°40'0 0.0
2015-Mar-27 19:33N 54°24' E 018°40'0 0.0
2015-Mar-27 18:33N 54°24' E 018°40'0 0.0
2015-Mar-27 17:33N 54°24' E 018°40'0 0.0
2015-Mar-27 16:33N 54°24' E 018°40'0 0.0
2015-Mar-27 15:34N 54°24' E 018°40'0 0.0
2015-Mar-27 14:34N 54°24' E 018°40'0 0.0
2015-Mar-27 13:34N 54°24' E 018°40'0 0.0
2015-Mar-27 12:34N 54°24' E 018°40'0 0.0
2015-Mar-27 11:34N 54°24' E 018°40'0 0.0
2015-Mar-27 10:34N 54°24' E 018°40'0 0.0
2015-Mar-27 09:33N 54°24' E 018°40'0 0.0
2015-Mar-27 08:33N 54°24' E 018°40'0 0.0
2015-Mar-27 07:33N 54°24' E 018°40'0 0.0
2015-Mar-27 06:33N 54°24' E 018°40'0 0.0
2015-Mar-27 05:32N 54°24' E 018°40'0 0.0
2015-Mar-27 04:33N 54°24' E 018°40'0 0.0
2015-Mar-27 03:33N 54°24' E 018°40'0 0.0
2015-Mar-27 02:32N 54°24' E 018°40'0 0.0
2015-Mar-27 01:33N 54°24' E 018°40'0 0.0
2015-Mar-27 00:33N 54°24' E 018°40'0 0.0
2015-Mar-26 23:33N 54°24' E 018°40'0 0.0
2015-Mar-26 22:33N 54°24' E 018°40'0 0.0
2015-Mar-26 21:33N 54°24' E 018°40'0 0.0
2015-Mar-26 20:33N 54°24' E 018°40'0 0.0
2015-Mar-26 19:33N 54°24' E 018°40'0 0.0
2015-Mar-26 18:33N 54°24' E 018°40'0 0.0
2015-Mar-26 17:32N 54°24' E 018°40'0 0.0
2015-Mar-26 16:32N 54°24' E 018°40'0 0.0
2015-Mar-26 15:34N 54°24' E 018°40'0 0.0
2015-Mar-26 14:34N 54°24' E 018°40'0 0.0
2015-Mar-26 13:33N 54°24' E 018°40'0 0.0
2015-Mar-26 12:33N 54°24' E 018°40'0 0.0
2015-Mar-26 11:33N 54°24' E 018°40'6 5.5
2015-Mar-26 10:32N 54°29' E 018°43'1010.3
2015-Mar-26 09:33N 54°37' E 018°54'10 9.9
2015-Mar-26 08:32N 54°47' E 018°58'1010.0
2015-Mar-26 07:33N 54°53' E 018°44'9 9.2
2015-Mar-26 06:34N 54°54' E 018°28'10 9.5
2015-Mar-26 05:33N 54°54' E 018°11'10 9.4
2015-Mar-26 04:32N 54°54' E 017°55'10 9.5
2015-Mar-26 03:32N 54°53' E 017°38'9 9.6
2015-Mar-26 02:33N 54°53' E 017°22'54 9.1
2015-Mar-25 20:33N 54°43' E 015°49'28 6.8
2015-Mar-25 16:28N 54°39' E 015°02'36 8.8
2015-Mar-25 12:26N 54°40' E 014°00'9 9.9
2015-Mar-25 11:29N 54°43' E 013°45'9 9.9
2015-Mar-25 10:33N 54°45' E 013°29'11 9.9
2015-Mar-25 09:29N 54°45' E 013°11'910.0
2015-Mar-25 08:33N 54°45' E 012°55'1110.0
2015-Mar-25 07:27N 54°42' E 012°37'1011.6
2015-Mar-25 06:33N 54°36' E 012°22'1010.4
2015-Mar-25 05:33N 54°27' E 012°14'10 9.8
2015-Mar-25 04:33N 54°25' E 011°57'1010.1
2015-Mar-25 03:33N 54°27' E 011°41'1010.0
2015-Mar-25 02:34N 54°31' E 011°25'1010.4
2015-Mar-25 01:34N 54°36' E 011°09'2110.3
2015-Mar-24 23:33N 54°33' E 010°34'1010.2
2015-Mar-24 22:33N 54°29' E 010°18'9 8.7
2015-Mar-24 21:33N 54°22' E 010°09'4 4.4
2015-Mar-24 20:34N 54°22' E 010°01'4 3.9
2015-Mar-24 19:32N 54°21' E 009°54'5 5.3
2015-Mar-24 18:33N 54°21' E 009°45'8 7.4
2015-Mar-24 17:27N 54°14' E 009°37'15 7.9
2015-Mar-24 15:34N 54°04' E 009°19'8 8.5
2015-Mar-24 14:34N 53°56' E 009°13'3 3.4
2015-Mar-24 13:33N 53°54' E 009°09'1 1.5
2015-Mar-24 12:33N 53°53' E 009°06'1110.6
2015-Mar-24 11:33N 53°50' E 008°49'1110.7
2015-Mar-24 10:31N 53°58' E 008°35'10 9.8
2015-Mar-24 09:33N 53°59' E 008°19'1210.8
2015-Mar-24 08:24N 53°58' E 007°58'8 9.8
2015-Mar-24 07:34N 53°56' E 007°44'9 9.2
2015-Mar-24 06:33N 53°54' E 007°29'9 8.9
2015-Mar-24 05:33N 53°52' E 007°14'27 5.4
2015-Mar-24 00:32N 53°32' E 006°44'9 9.1
2015-Mar-23 23:33N 53°26' E 006°55'7 7.2
2015-Mar-23 22:33N 53°19' E 006°59'3 2.6
2015-Mar-23 21:33N 53°19' E 006°55'0 0.1
2015-Mar-23 20:32N 53°19' E 006°55'0 0.0
2015-Mar-23 19:32N 53°19' E 006°55'0 0.0
2015-Mar-23 18:32N 53°19' E 006°55'0 0.0
2015-Mar-23 17:32N 53°19' E 006°55'0 0.0
2015-Mar-23 16:32N 53°19' E 006°55'0 0.0
2015-Mar-23 15:32N 53°19' E 006°55'0 0.0
2015-Mar-23 14:32N 53°19' E 006°55'0 0.0
2015-Mar-23 13:29N 53°19' E 006°55'0 0.0
2015-Mar-23 12:32N 53°19' E 006°55'0 0.0
2015-Mar-23 11:29N 53°19' E 006°55'0 0.0
2015-Mar-23 10:32N 53°19' E 006°55'0 0.0
2015-Mar-23 09:32N 53°19' E 006°55'0 0.0
2015-Mar-23 08:32N 53°19' E 006°55'0 0.0
2015-Mar-23 07:32N 53°19' E 006°55'0 0.0
2015-Mar-23 06:32N 53°19' E 006°55'0 0.0
2015-Mar-23 05:32N 53°19' E 006°55'0 0.0
2015-Mar-23 04:26N 53°19' E 006°55'0 0.0
2015-Mar-23 03:32N 53°19' E 006°55'0 0.0
2015-Mar-23 02:32N 53°19' E 006°55'0 0.0
2015-Mar-23 01:33N 53°19' E 006°55'0 0.0
2015-Mar-23 00:32N 53°19' E 006°55'0 0.0
2015-Mar-22 23:32N 53°19' E 006°55'0 0.0
2015-Mar-22 22:33N 53°19' E 006°55'0 0.0
2015-Mar-22 21:32N 53°19' E 006°55'0 0.0
2015-Mar-22 20:32N 53°19' E 006°55'0 0.0
2015-Mar-22 19:29N 53°19' E 006°55'0 0.0
2015-Mar-22 18:32N 53°19' E 006°55'0 0.0
2015-Mar-22 17:32N 53°19' E 006°55'0 0.0
2015-Mar-22 16:32N 53°19' E 006°55'0 0.0
2015-Mar-22 15:32N 53°19' E 006°55'0 0.0
2015-Mar-22 14:32N 53°19' E 006°55'0 0.0
2015-Mar-22 13:32N 53°19' E 006°55'0 0.0
2015-Mar-22 12:29N 53°19' E 006°55'0 0.0
2015-Mar-22 11:32N 53°19' E 006°55'0 0.0
2015-Mar-22 10:32N 53°19' E 006°55'0 0.0
2015-Mar-22 09:32N 53°19' E 006°55'0 0.0
2015-Mar-22 08:32N 53°19' E 006°55'0 0.0
2015-Mar-22 07:32N 53°19' E 006°55'0 0.0
2015-Mar-22 06:32N 53°19' E 006°55'0 0.0
2015-Mar-22 05:32N 53°19' E 006°55'0 0.0
2015-Mar-22 04:33N 53°19' E 006°55'0 0.0
2015-Mar-22 03:32N 53°19' E 006°55'0 0.0
2015-Mar-22 02:29N 53°19' E 006°55'0 0.0
2015-Mar-22 01:32N 53°19' E 006°55'0 0.0
2015-Mar-22 00:32N 53°19' E 006°55'0 0.0
2015-Mar-21 23:32N 53°19' E 006°55'0 0.0
2015-Mar-21 22:32N 53°19' E 006°55'0 0.0
2015-Mar-21 21:32N 53°19' E 006°55'0 0.0
2015-Mar-21 20:29N 53°19' E 006°55'0 0.0
2015-Mar-21 19:32N 53°19' E 006°55'0 0.0
2015-Mar-21 18:32N 53°19' E 006°55'0 0.0
2015-Mar-21 17:32N 53°19' E 006°55'0 0.0
2015-Mar-21 16:32N 53°19' E 006°55'0 0.0
2015-Mar-21 15:32N 53°19' E 006°55'0 0.0
2015-Mar-21 14:32N 53°19' E 006°55'0 0.0
2015-Mar-21 13:32N 53°19' E 006°55'0 0.0
2015-Mar-21 12:32N 53°19' E 006°55'0 0.0
2015-Mar-21 11:26N 53°19' E 006°55'0 0.0
2015-Mar-21 10:32N 53°19' E 006°55'0 0.0
2015-Mar-21 09:32N 53°19' E 006°55'0 0.0
2015-Mar-21 08:32N 53°19' E 006°55'0 0.0
2015-Mar-21 07:32N 53°19' E 006°55'0 0.0
2015-Mar-21 06:32N 53°19' E 006°55'0 0.0
2015-Mar-21 05:32N 53°19' E 006°55'0 0.0
2015-Mar-21 04:33N 53°19' E 006°55'0 0.0
2015-Mar-21 03:29N 53°19' E 006°55'0 0.0
2015-Mar-21 02:29N 53°19' E 006°55'0 0.0
2015-Mar-21 01:29N 53°19' E 006°55'0 0.0
2015-Mar-21 00:20N 53°19' E 006°55'0 0.0
2015-Mar-20 23:29N 53°19' E 006°55'0 0.0
2015-Mar-20 22:29N 53°19' E 006°55'0 0.0
2015-Mar-20 21:32N 53°19' E 006°55'0 0.0
2015-Mar-20 20:32N 53°19' E 006°55'0 0.5
2015-Mar-20 19:33N 53°19' E 006°55'1 1.1
2015-Mar-20 18:33N 53°20' E 006°56'0 0.3
2015-Mar-20 17:33N 53°20' E 006°56'0 0.0
2015-Mar-20 16:33N 53°20' E 006°56'0 0.0
2015-Mar-20 15:33N 53°20' E 006°56'0 0.0
2015-Mar-20 14:33N 53°20' E 006°56'0 0.0
2015-Mar-20 13:33N 53°20' E 006°56'0 0.0
2015-Mar-20 12:33N 53°20' E 006°56'0 0.0
2015-Mar-20 11:33N 53°20' E 006°56'0 0.0
2015-Mar-20 10:33N 53°20' E 006°56'1 1.2
2015-Mar-20 09:33N 53°19' E 006°58'9 8.9
2015-Mar-20 08:33N 53°28' E 006°52'3712.5
2015-Mar-20 05:33N 53°36' E 005°51'1211.6
2015-Mar-20 04:33N 53°34' E 005°32'1111.4
2015-Mar-20 03:33N 53°31' E 005°13'1110.7
2015-Mar-20 02:33N 53°27' E 004°57'10 9.7
2015-Mar-20 01:33N 53°23' E 004°42'37 9.2
2015-Mar-19 21:29N 52°50' E 004°12'20 8.9
2015-Mar-19 19:11N 52°34' E 003°51'8310.8
2015-Mar-19 11:28N 51°34' E 002°18'1411.4
2015-Mar-19 10:16N 51°23' E 002°03'810.9
2015-Mar-19 09:33N 51°17' E 001°56'10 9.9
2015-Mar-19 08:33N 51°10' E 001°45'8 8.2
2015-Mar-19 07:33N 51°03' E 001°37'10 8.2
2015-Mar-19 06:19N 50°54' E 001°30'  

Dump ship's entire track history